sensor_id;sensor_type;location;lat;lon;timestamp;pressure;altitude;pressure_sealevel;temperature;humidity
11643;BME280;5877;50.930;6.918;2023-04-15T00:01:01;100151.44;;;8.99;55.42
11643;BME280;5877;50.930;6.918;2023-04-15T00:05:53;99847.78;;;7.07;54.53
11643;BME280;5877;50.930;6.918;2023-04-15T00:10:45;99792.47;;;6.85;55.47
11643;BME280;5877;50.930;6.918;2023-04-15T00:15:37;99656.88;;;5.76;55.69
11643;BME280;5877;50.930;6.918;2023-04-15T00:20:29;100090.22;;;8.44;55.52
11643;BME280;5877;50.930;6.918;2023-04-15T00:25:21;100058.94;;;8.24;55.25
11643;BME280;5877;50.930;6.918;2023-04-15T00:30:14;99955.84;;;7.37;55.36
11643;BME280;5877;50.930;6.918;2023-04-15T00:35:06;99884.47;;;7.12;55.28
11643;BME280;5877;50.930;6.918;2023-04-15T00:39:59;100069.28;;;8.06;55.72
11643;BME280;5877;50.930;6.918;2023-04-15T00:44:51;99808.84;;;6.41;55.69
11643;BME280;5877;50.930;6.918;2023-04-15T00:49:43;100030.75;;;7.88;55.81
11643;BME280;5877;50.930;6.918;2023-04-15T00:54:35;100088.75;;;8.10;56.51
11643;BME280;5877;50.930;6.918;2023-04-15T01:00:41;99817.91;;;6.25;56.55
11643;BME280;5877;50.930;6.918;2023-04-15T09:07:21;100219.78;;;17.47;31.20
11643;BME280;5877;50.930;6.918;2023-04-15T09:12:14;100270.44;;;17.61;31.00
11643;BME280;5877;50.930;6.918;2023-04-15T09:17:09;100451.81;;;18.37;31.97
11643;BME280;5877;50.930;6.918;2023-04-15T09:22:03;100018.78;;;16.32;31.74
11643;BME280;5877;50.930;6.918;2023-04-15T09:26:57;100242.28;;;18.05;31.14
11643;BME280;5877;50.930;6.918;2023-04-15T09:31:49;100369.75;;;17.70;32.16
11643;BME280;5877;50.930;6.918;2023-04-15T09:36:52;100465.63;;;18.24;33.14
11643;BME280;5877;50.930;6.918;2023-04-15T09:41:44;100213.38;;;16.87;33.08
11643;BME280;5877;50.930;6.918;2023-04-15T09:46:43;100341.88;;;18.13;33.01
11643;BME280;5877;50.930;6.918;2023-04-15T09:51:36;100041.16;;;15.21;34.02
11643;BME280;5877;50.930;6.918;2023-04-15T09:56:34;100341.78;;;17.22;34.15
11643;BME280;5877;50.930;6.918;2023-04-15T10:01:28;100356.22;;;17.71;33.59
11643;BME280;5877;50.930;6.918;2023-04-15T10:06:23;100405.63;;;17.93;33.12
11643;BME280;5877;50.930;6.918;2023-04-15T10:11:18;100506.22;;;19.06;32.96
11643;BME280;5877;50.930;6.918;2023-04-15T10:16:13;100495.91;;;18.54;34.47
11643;BME280;5877;50.930;6.918;2023-04-15T10:21:06;100252.56;;;16.17;35.23
11643;BME280;5877;50.930;6.918;2023-04-15T10:25:59;100221.00;;;15.00;37.10
11643;BME280;5877;50.930;6.918;2023-04-15T10:30:52;100306.72;;;15.63;37.71
11643;BME280;5877;50.930;6.918;2023-04-15T10:35:47;100277.00;;;15.87;37.35
11643;BME280;5877;50.930;6.918;2023-04-15T10:40:39;100256.97;;;15.27;37.85
11643;BME280;5877;50.930;6.918;2023-04-15T10:45:34;100351.50;;;16.43;37.21
11643;BME280;5877;50.930;6.918;2023-04-15T10:50:30;100411.84;;;17.31;36.22
11643;BME280;5877;50.930;6.918;2023-04-15T10:55:30;100531.78;;;18.41;36.07
11643;BME280;5877;50.930;6.918;2023-04-15T11:00:28;100325.91;;;17.37;35.03
11643;BME280;5877;50.930;6.918;2023-04-15T11:05:22;100530.94;;;17.84;36.04
11643;BME280;5877;50.930;6.918;2023-04-15T11:15:32;100547.13;;;17.88;36.98
11643;BME280;5877;50.930;6.918;2023-04-15T11:20:24;100569.22;;;18.04;36.41
11643;BME280;5877;50.930;6.918;2023-04-15T11:25:24;100412.94;;;17.40;36.18
11643;BME280;5877;50.930;6.918;2023-04-15T11:30:21;100327.56;;;16.75;36.04
11643;BME280;5877;50.930;6.918;2023-04-15T11:35:15;100555.19;;;17.46;37.15
11643;BME280;5877;50.930;6.918;2023-04-15T11:40:08;100332.34;;;15.30;39.05
11643;BME280;5877;50.930;6.918;2023-04-15T11:45:08;100539.53;;;17.02;38.55
11643;BME280;5877;50.930;6.918;2023-04-15T11:50:17;100585.56;;;17.23;38.74
11643;BME280;5877;50.930;6.918;2023-04-15T11:55:10;100311.50;;;15.98;37.99
11643;BME280;5877;50.930;6.918;2023-04-15T12:00:02;100262.22;;;15.54;38.16
11643;BME280;5877;50.930;6.918;2023-04-15T12:05:05;100358.06;;;15.94;38.76
11643;BME280;5877;50.930;6.918;2023-04-15T12:09:57;100381.28;;;15.86;39.24
11643;BME280;5877;50.930;6.918;2023-04-15T12:14:50;100386.81;;;16.17;38.44
11643;BME280;5877;50.930;6.918;2023-04-15T12:19:42;100576.41;;;17.04;38.80
11643;BME280;5877;50.930;6.918;2023-04-15T12:24:36;100458.22;;;15.31;41.36
11643;BME280;5877;50.930;6.918;2023-04-15T12:29:29;100646.16;;;16.02;42.86
11643;BME280;5877;50.930;6.918;2023-04-15T12:34:32;100143.59;;;12.62;43.00
11643;BME280;5877;50.930;6.918;2023-04-15T12:39:26;100669.38;;;15.95;43.02
11643;BME280;5877;50.930;6.918;2023-04-15T12:44:22;100682.28;;;15.19;44.78
11643;BME280;5877;50.930;6.918;2023-04-15T12:49:15;100421.09;;;13.65;44.70
11643;BME280;5877;50.930;6.918;2023-04-15T12:54:10;100580.22;;;14.39;45.81
11643;BME280;5877;50.930;6.918;2023-04-15T12:59:01;100403.34;;;12.80;46.61
11643;BME280;5877;50.930;6.918;2023-04-15T13:03:53;100624.34;;;13.98;47.50
11643;BME280;5877;50.930;6.918;2023-04-15T13:08:46;100399.91;;;12.45;47.25
11643;BME280;5877;50.930;6.918;2023-04-15T13:13:49;100571.91;;;13.39;48.10
11643;BME280;5877;50.930;6.918;2023-04-15T13:18:40;100639.31;;;13.46;48.23
11643;BME280;5877;50.930;6.918;2023-04-15T13:23:32;100513.94;;;12.57;49.29
11643;BME280;5877;50.930;6.918;2023-04-15T13:28:24;100464.47;;;11.94;49.56
11643;BME280;5877;50.930;6.918;2023-04-15T13:33:16;100748.16;;;13.88;49.03
11643;BME280;5877;50.930;6.918;2023-04-15T13:38:09;100476.88;;;12.17;49.22
11643;BME280;5877;50.930;6.918;2023-04-15T13:43:00;100749.06;;;13.71;49.42
11643;BME280;5877;50.930;6.918;2023-04-15T13:47:55;100762.81;;;13.61;50.79
11643;BME280;5877;50.930;6.918;2023-04-15T13:52:47;100562.31;;;12.44;50.50
11643;BME280;5877;50.930;6.918;2023-04-15T13:57:39;100489.31;;;11.61;51.28
11643;BME280;5877;50.930;6.918;2023-04-15T14:02:31;100317.66;;;10.34;51.02
11643;BME280;5877;50.930;6.918;2023-04-15T14:07:24;100432.78;;;11.22;51.09
11643;BME280;5877;50.930;6.918;2023-04-15T14:12:16;100582.94;;;12.17;51.12
11643;BME280;5877;50.930;6.918;2023-04-15T14:17:08;100665.63;;;12.99;50.82
11643;BME280;5877;50.930;6.918;2023-04-15T14:22:00;100426.13;;;11.86;49.33
11643;BME280;5877;50.930;6.918;2023-04-15T14:26:52;100671.88;;;13.52;48.70
11643;BME280;5877;50.930;6.918;2023-04-15T14:31:44;100747.09;;;14.01;48.81
11643;BME280;5877;50.930;6.918;2023-04-15T14:36:56;100696.28;;;13.82;49.10
11643;BME280;5877;50.930;6.918;2023-04-15T14:41:48;100566.25;;;12.23;51.59
11643;BME280;5877;50.930;6.918;2023-04-15T14:46:40;100432.94;;;11.09;52.88
11643;BME280;5877;50.930;6.918;2023-04-15T14:51:32;100550.53;;;11.87;53.17
11643;BME280;5877;50.930;6.918;2023-04-15T14:56:25;100741.91;;;12.94;54.65
11643;BME280;5877;50.930;6.918;2023-04-15T15:01:18;100472.84;;;11.36;54.45
11643;BME280;5877;50.930;6.918;2023-04-15T15:06:10;100702.16;;;13.08;52.53
11643;BME280;5877;50.930;6.918;2023-04-15T15:11:02;100496.72;;;12.43;50.62
11643;BME280;5877;50.930;6.918;2023-04-15T15:15:54;100535.38;;;12.84;51.32
11643;BME280;5877;50.930;6.918;2023-04-15T15:20:46;100655.19;;;13.05;52.40
11643;BME280;5877;50.930;6.918;2023-04-15T15:25:38;100586.47;;;11.93;54.78
11643;BME280;5877;50.930;6.918;2023-04-15T15:30:30;100664.75;;;11.73;57.00
11643;BME280;5877;50.930;6.918;2023-04-15T15:35:22;100663.78;;;11.67;57.16
11643;BME280;5877;50.930;6.918;2023-04-15T15:40:14;100801.00;;;12.50;56.28
11643;BME280;5877;50.930;6.918;2023-04-15T15:45:07;100870.00;;;13.25;56.56
11643;BME280;5877;50.930;6.918;2023-04-15T15:50:00;100639.69;;;11.70;56.35
11643;BME280;5877;50.930;6.918;2023-04-15T15:54:55;100675.06;;;11.49;58.11
11643;BME280;5877;50.930;6.918;2023-04-15T15:59:47;100629.38;;;11.50;57.98
11643;BME280;5877;50.930;6.918;2023-04-15T16:04:39;100631.75;;;11.09;58.37
11643;BME280;5877;50.930;6.918;2023-04-15T16:09:33;100699.31;;;11.26;59.50
11643;BME280;5877;50.930;6.918;2023-04-15T16:14:25;100637.38;;;10.87;59.79
11643;BME280;5877;50.930;6.918;2023-04-15T16:19:19;100736.06;;;11.33;60.49
11643;BME280;5877;50.930;6.918;2023-04-15T16:24:11;100689.75;;;11.07;60.42
11643;BME280;5877;50.930;6.918;2023-04-15T16:29:03;100716.94;;;10.88;61.14
11643;BME280;5877;50.930;6.918;2023-04-15T16:33:56;100598.50;;;9.95;62.26
11643;BME280;5877;50.930;6.918;2023-04-15T16:38:48;100831.13;;;11.23;62.51
11643;BME280;5877;50.930;6.918;2023-04-15T16:43:41;100820.94;;;10.95;63.35
11643;BME280;5877;50.930;6.918;2023-04-15T16:48:33;100733.59;;;10.24;63.29
11643;BME280;5877;50.930;6.918;2023-04-15T16:53:24;100623.97;;;9.68;63.56
11643;BME280;5877;50.930;6.918;2023-04-15T16:58:17;100886.41;;;11.42;62.37
11643;BME280;5877;50.930;6.918;2023-04-15T17:03:09;100775.84;;;10.60;62.42
11643;BME280;5877;50.930;6.918;2023-04-15T17:08:03;100756.09;;;10.51;62.30
11643;BME280;5877;50.930;6.918;2023-04-15T17:12:56;100790.56;;;10.61;62.77
11643;BME280;5877;50.930;6.918;2023-04-15T17:17:49;100689.84;;;10.04;62.33
11643;BME280;5877;50.930;6.918;2023-04-15T17:22:41;100413.88;;;8.02;62.06
11643;BME280;5877;50.930;6.918;2023-04-15T17:27:35;100760.97;;;10.41;60.97
11643;BME280;5877;50.930;6.918;2023-04-15T17:32:29;100664.91;;;9.62;60.72
11643;BME280;5877;50.930;6.918;2023-04-15T17:37:25;100944.81;;;11.44;61.12
11643;BME280;5877;50.930;6.918;2023-04-15T17:42:17;100946.44;;;11.45;61.31
11643;BME280;5877;50.930;6.918;2023-04-15T17:47:09;100995.56;;;11.51;60.75
11643;BME280;5877;50.930;6.918;2023-04-15T17:52:01;100986.47;;;11.47;60.77
11643;BME280;5877;50.930;6.918;2023-04-15T17:56:52;100743.91;;;9.92;60.89
11643;BME280;5877;50.930;6.918;2023-04-15T18:01:44;100730.00;;;9.85;60.96
11643;BME280;5877;50.930;6.918;2023-04-15T18:06:36;100771.53;;;9.95;61.00
11643;BME280;5877;50.930;6.918;2023-04-15T18:11:29;101067.66;;;11.75;60.50
11643;BME280;5877;50.930;6.918;2023-04-15T18:16:22;100784.66;;;9.75;61.23
11643;BME280;5877;50.930;6.918;2023-04-15T18:21:14;100795.31;;;9.54;61.35
11643;BME280;5877;50.930;6.918;2023-04-15T18:26:06;100677.97;;;8.83;61.58
11643;BME280;5877;50.930;6.918;2023-04-15T18:30:58;100849.81;;;9.91;61.81
11643;BME280;5877;50.930;6.918;2023-04-15T18:35:50;100866.69;;;9.62;63.50
11643;BME280;5877;50.930;6.918;2023-04-15T18:40:42;100786.47;;;8.81;66.39
11643;BME280;5877;50.930;6.918;2023-04-15T18:45:34;100989.78;;;10.03;66.92
11643;BME280;5877;50.930;6.918;2023-04-15T18:50:26;100871.03;;;9.22;66.89
11643;BME280;5877;50.930;6.918;2023-04-15T18:55:18;101011.22;;;10.14;67.93
11643;BME280;5877;50.930;6.918;2023-04-15T19:00:11;100958.03;;;9.65;69.47
11643;BME280;5877;50.930;6.918;2023-04-15T19:05:04;100890.69;;;9.05;71.04
11643;BME280;5877;50.930;6.918;2023-04-15T19:09:56;101074.81;;;9.74;71.88
11643;BME280;5877;50.930;6.918;2023-04-15T19:14:48;101026.34;;;9.57;72.03
11643;BME280;5877;50.930;6.918;2023-04-15T19:19:40;101095.47;;;9.97;72.60
11643;BME280;5877;50.930;6.918;2023-04-15T19:24:31;100919.56;;;8.84;72.43
11643;BME280;5877;50.930;6.918;2023-04-15T19:29:24;101003.59;;;9.23;72.68
11643;BME280;5877;50.930;6.918;2023-04-15T19:34:17;100719.88;;;7.45;73.14
11643;BME280;5877;50.930;6.918;2023-04-15T19:39:10;100957.22;;;8.83;73.93
11643;BME280;5877;50.930;6.918;2023-04-15T19:44:02;101111.47;;;9.68;74.77
11643;BME280;5877;50.930;6.918;2023-04-15T19:48:55;100804.97;;;7.82;74.48
11643;BME280;5877;50.930;6.918;2023-04-15T19:53:47;101035.16;;;9.15;74.45
11643;BME280;5877;50.930;6.918;2023-04-15T19:58:40;101103.44;;;9.41;74.18
11643;BME280;5877;50.930;6.918;2023-04-15T20:03:32;101070.41;;;9.13;74.62
11643;BME280;5877;50.930;6.918;2023-04-15T20:08:24;101033.88;;;8.76;74.87
11643;BME280;5877;50.930;6.918;2023-04-15T20:13:16;100945.06;;;8.26;75.21
11643;BME280;5877;50.930;6.918;2023-04-15T20:18:08;100973.38;;;8.37;75.54
11643;BME280;5877;50.930;6.918;2023-04-15T20:23:00;101170.41;;;9.51;76.11
11643;BME280;5877;50.930;6.918;2023-04-15T20:27:52;101012.03;;;8.41;76.52
11643;BME280;5877;50.930;6.918;2023-04-15T20:32:45;100986.06;;;8.40;76.64
11643;BME280;5877;50.930;6.918;2023-04-15T20:37:37;101003.69;;;8.53;76.36
11643;BME280;5877;50.930;6.918;2023-04-15T20:42:32;101190.66;;;9.63;76.59
11643;BME280;5877;50.930;6.918;2023-04-15T20:47:24;100887.97;;;7.80;76.01
11643;BME280;5877;50.930;6.918;2023-04-15T20:52:17;100939.28;;;8.09;76.61
11643;BME280;5877;50.930;6.918;2023-04-15T20:57:09;101001.50;;;8.35;76.42
11643;BME280;5877;50.930;6.918;2023-04-15T21:02:02;101180.19;;;9.35;77.13
11643;BME280;5877;50.930;6.918;2023-04-15T21:06:53;101185.38;;;9.29;76.69
11643;BME280;5877;50.930;6.918;2023-04-15T21:11:47;101276.59;;;9.96;76.82
11643;BME280;5877;50.930;6.918;2023-04-15T21:16:51;101119.03;;;9.00;76.89
11643;BME280;5877;50.930;6.918;2023-04-15T21:21:44;100874.91;;;7.59;77.08
11643;BME280;5877;50.930;6.918;2023-04-15T21:26:36;101175.81;;;9.42;76.85
11643;BME280;5877;50.930;6.918;2023-04-15T21:31:28;101096.44;;;8.93;76.50
11643;BME280;5877;50.930;6.918;2023-04-15T21:36:21;101031.66;;;8.52;76.47
11643;BME280;5877;50.930;6.918;2023-04-15T21:41:14;101163.06;;;9.11;76.63
11643;BME280;5877;50.930;6.918;2023-04-15T21:46:05;100962.25;;;7.92;76.31
11643;BME280;5877;50.930;6.918;2023-04-15T21:51:15;100994.69;;;8.19;75.88
11643;BME280;5877;50.930;6.918;2023-04-15T21:56:07;101032.63;;;8.30;75.81
11643;BME280;5877;50.930;6.918;2023-04-15T22:00:59;101312.94;;;9.99;76.28
11643;BME280;5877;50.930;6.918;2023-04-15T22:05:52;101198.78;;;9.19;75.71
11643;BME280;5877;50.930;6.918;2023-04-15T22:10:43;101141.00;;;8.99;75.56
11643;BME280;5877;50.930;6.918;2023-04-15T22:15:36;101133.13;;;8.99;75.45
11643;BME280;5877;50.930;6.918;2023-04-15T22:20:28;101181.06;;;9.21;75.62
11643;BME280;5877;50.930;6.918;2023-04-15T22:25:21;101281.53;;;9.56;76.11
11643;BME280;5877;50.930;6.918;2023-04-15T22:30:13;101270.13;;;9.42;76.39
11643;BME280;5877;50.930;6.918;2023-04-15T22:35:05;101209.13;;;9.06;77.11
11643;BME280;5877;50.930;6.918;2023-04-15T22:39:57;101047.91;;;8.11;76.59
11643;BME280;5877;50.930;6.918;2023-04-15T22:44:50;100955.66;;;7.24;76.42
11643;BME280;5877;50.930;6.918;2023-04-15T22:49:41;101141.38;;;8.39;76.67
11643;BME280;5877;50.930;6.918;2023-04-15T22:54:35;101069.56;;;8.05;76.55
11643;BME280;5877;50.930;6.918;2023-04-15T22:59:27;101365.66;;;9.83;76.31
11643;BME280;5877;50.930;6.918;2023-04-15T23:04:19;101254.28;;;9.29;75.91
11643;BME280;5877;50.930;6.918;2023-04-15T23:09:18;101297.44;;;9.55;75.85
11643;BME280;5877;50.930;6.918;2023-04-15T23:14:10;101232.75;;;9.13;76.07
11643;BME280;5877;50.930;6.918;2023-04-15T23:19:01;101206.50;;;9.06;75.36
11643;BME280;5877;50.930;6.918;2023-04-15T23:23:53;101037.41;;;7.90;75.28
11643;BME280;5877;50.930;6.918;2023-04-15T23:28:45;101373.78;;;9.88;75.47
11643;BME280;5877;50.930;6.918;2023-04-15T23:33:37;101119.72;;;8.45;74.89
11643;BME280;5877;50.930;6.918;2023-04-15T23:38:29;101066.44;;;7.95;74.61
11643;BME280;5877;50.930;6.918;2023-04-15T23:43:20;101021.16;;;7.73;74.67
11643;BME280;5877;50.930;6.918;2023-04-15T23:48:12;101155.69;;;8.58;74.52
11643;BME280;5877;50.930;6.918;2023-04-15T23:53:05;101276.03;;;9.51;74.55
11643;BME280;5877;50.930;6.918;2023-04-15T23:57:57;101168.28;;;8.69;74.44
